Time;durP1;ratioP1;P1;durP2;ratioP2;P2;SDS_P1;SDS_P2;PMS_P1;PMS_P2;Temp;Humidity;BMP_temperature;BMP_pressure;BME280_temperature;BME280_humidity;BME280_pressure;Samples;Min_cycle;Max_cycle;Signal;HPM_P1;HPM_P2
2022/03/27 00:01:34;;;;;;;8.63;3.47;;;7.90;99.90;;;;;;5044324;28;20044;-75
2022/03/27 00:03:59;;;;;;;10.43;4.00;;;7.90;99.90;;;;;;5038343;28;20049;-75
2022/03/27 00:06:28;;;;;;;7.93;4.35;;;7.90;99.90;;;;;;5045608;28;20051;-74
2022/03/27 00:08:54;;;;;;;7.53;3.80;;;7.90;99.90;;;;;;5043591;28;20072;-74
2022/03/27 00:11:27;;;;;;;6.63;4.28;;;7.90;99.90;;;;;;5036801;28;20137;-74
2022/03/27 00:13:59;;;;;;;8.90;4.25;;;8.00;99.90;;;;;;5028186;28;20155;-74
2022/03/27 00:16:25;;;;;;;6.55;3.72;;;8.00;99.90;;;;;;5033457;28;20048;-74
2022/03/27 00:18:51;;;;;;;8.55;4.65;;;8.00;99.90;;;;;;5032665;28;20049;-74
2022/03/27 00:21:20;;;;;;;7.35;3.70;;;7.90;99.90;;;;;;5035560;28;20779;-74
2022/03/27 00:23:47;;;;;;;8.45;4.30;;;8.00;99.90;;;;;;5034531;28;20053;-74
2022/03/27 00:26:12;;;;;;;10.10;4.25;;;8.00;99.90;;;;;;5025136;28;20627;-75
2022/03/27 00:28:38;;;;;;;7.78;3.70;;;8.00;99.90;;;;;;5024001;28;20053;-74
2022/03/27 00:31:06;;;;;;;8.13;3.88;;;8.00;99.90;;;;;;5033794;28;20045;-74
2022/03/27 00:33:32;;;;;;;7.22;4.10;;;8.00;99.90;;;;;;5028180;28;20056;-74
2022/03/27 00:36:01;;;;;;;9.68;4.18;;;8.00;99.90;;;;;;5023878;28;20071;-74
2022/03/27 00:38:26;;;;;;;8.60;4.18;;;7.90;99.90;;;;;;5025267;28;20053;-74
2022/03/27 00:40:56;;;;;;;7.28;3.97;;;7.90;99.90;;;;;;5027639;28;20037;-74
2022/03/27 00:43:24;;;;;;;8.25;4.07;;;8.00;99.90;;;;;;5026455;28;20046;-74
2022/03/27 00:45:51;;;;;;;8.30;3.85;;;7.90;99.90;;;;;;5031781;28;20135;-74
2022/03/27 00:48:18;;;;;;;9.35;4.40;;;7.90;99.90;;;;;;5025947;28;20057;-74
2022/03/27 00:50:45;;;;;;;10.00;3.95;;;7.90;99.90;;;;;;5026490;28;20693;-74
2022/03/27 00:53:10;;;;;;;9.73;4.20;;;7.80;99.90;;;;;;5026649;28;20766;-75
2022/03/27 00:55:36;;;;;;;8.43;4.65;;;7.70;99.90;;;;;;5028399;28;20076;-74
2022/03/27 00:58:02;;;;;;;9.25;4.22;;;7.90;99.90;;;;;;5025372;28;20076;-74
2022/03/27 01:00:46;;;;;;;9.40;4.28;;;7.70;99.90;;;;;;5030416;28;20099;-74
2022/03/27 01:03:14;;;;;;;9.50;4.10;;;7.70;99.90;;;;;;5033745;28;20382;-74
2022/03/27 01:05:41;;;;;;;8.25;3.65;;;7.70;99.90;;;;;;5027605;28;20049;-74
2022/03/27 01:08:09;;;;;;;10.10;3.95;;;7.70;99.90;;;;;;5028921;28;20064;-74
2022/03/27 01:10:37;;;;;;;9.77;4.57;;;7.70;99.90;;;;;;5023483;28;20144;-74
2022/03/27 01:13:16;;;;;;;7.05;3.65;;;7.60;99.90;;;;;;5035731;28;20056;-74
2022/03/27 01:15:46;;;;;;;9.95;3.95;;;7.60;99.90;;;;;;5031334;28;20821;-74
2022/03/27 01:18:13;;;;;;;8.30;3.53;;;7.60;99.90;;;;;;5023109;28;20049;-74
2022/03/27 01:20:42;;;;;;;8.85;4.35;;;7.50;99.90;;;;;;5022848;28;20041;-74
2022/03/27 01:23:09;;;;;;;10.88;3.97;;;7.50;99.90;;;;;;5023784;28;20049;-74
2022/03/27 01:25:37;;;;;;;7.68;3.53;;;7.40;99.90;;;;;;5032541;28;20089;-74
2022/03/27 01:28:03;;;;;;;9.23;4.35;;;7.40;99.90;;;;;;5027479;28;20149;-74
2022/03/27 01:30:32;;;;;;;7.63;3.95;;;7.30;99.90;;;;;;5029074;28;20211;-74
2022/03/27 01:32:58;;;;;;;9.85;4.10;;;7.30;99.90;;;;;;5030512;28;20654;-74
2022/03/27 01:35:24;;;;;;;10.43;4.13;;;7.30;99.90;;;;;;5019020;28;20041;-74
2022/03/27 01:37:50;;;;;;;8.23;4.40;;;7.30;99.90;;;;;;5026815;28;20064;-74
2022/03/27 01:40:17;;;;;;;7.97;4.82;;;7.30;99.90;;;;;;5027611;28;20044;-74
2022/03/27 01:42:44;;;;;;;8.75;4.40;;;7.30;99.90;;;;;;5025639;28;20046;-74
2022/03/27 01:45:10;;;;;;;10.18;4.72;;;7.30;99.90;;;;;;5046103;28;20045;-74
2022/03/27 01:47:37;;;;;;;10.15;4.45;;;7.30;99.90;;;;;;5036922;28;20653;-74
2022/03/27 01:50:05;;;;;;;9.75;4.88;;;7.30;99.90;;;;;;5032219;28;20069;-74
2022/03/27 01:52:31;;;;;;;11.65;5.22;;;7.30;99.90;;;;;;5041732;28;20591;-74
2022/03/27 01:54:57;;;;;;;11.38;4.82;;;7.40;99.90;;;;;;5036518;28;20132;-74
2022/03/27 01:57:22;;;;;;;11.68;5.25;;;7.40;99.90;;;;;;5026095;28;20060;-74
2022/03/27 01:59:49;;;;;;;10.90;4.40;;;7.40;99.90;;;;;;5030683;28;20077;-74
2022/03/27 02:02:23;;;;;;;11.02;5.05;;;7.40;99.90;;;;;;5042403;28;20053;-74
2022/03/27 02:05:04;;;;;;;12.50;5.53;;;7.40;99.90;;;;;;5052209;28;20048;-74
2022/03/27 02:07:37;;;;;;;13.63;5.18;;;7.40;99.90;;;;;;5029021;28;20677;-74
2022/03/27 02:10:04;;;;;;;10.60;5.30;;;7.40;99.90;;;;;;5040971;28;20587;-74
2022/03/27 02:12:34;;;;;;;11.18;5.20;;;7.40;99.90;;;;;;5044305;28;20058;-74
2022/03/27 02:14:59;;;;;;;11.50;5.05;;;7.40;99.90;;;;;;5039045;28;20045;-74
2022/03/27 02:17:26;;;;;;;10.18;4.97;;;7.40;99.90;;;;;;5043300;28;20552;-74
2022/03/27 02:19:52;;;;;;;12.75;5.45;;;7.30;99.90;;;;;;5041262;28;20045;-74
2022/03/27 02:22:18;;;;;;;12.48;5.53;;;7.30;99.90;;;;;;5037129;28;20613;-74
2022/03/27 02:24:44;;;;;;;15.00;5.35;;;7.30;99.90;;;;;;5034835;28;20788;-74
2022/03/27 02:27:10;;;;;;;16.73;5.25;;;7.20;99.90;;;;;;5033134;28;20450;-74
2022/03/27 02:29:35;;;;;;;13.35;5.30;;;7.20;99.90;;;;;;5042974;28;20078;-74
2022/03/27 02:32:01;;;;;;;12.90;5.50;;;7.10;99.90;;;;;;5035382;28;20052;-74
2022/03/27 02:34:26;;;;;;;14.45;6.35;;;7.10;99.90;;;;;;5040332;28;20045;-74
2022/03/27 02:36:52;;;;;;;12.10;4.63;;;7.00;99.90;;;;;;5036859;28;20156;-74
2022/03/27 02:39:17;;;;;;;18.05;5.10;;;7.00;99.90;;;;;;5030774;28;20044;-74
2022/03/27 02:41:45;;;;;;;13.13;6.38;;;7.00;99.90;;;;;;5041838;28;20048;-74
2022/03/27 02:44:12;;;;;;;20.08;6.95;;;7.10;99.90;;;;;;5032486;28;20049;-74
2022/03/27 02:46:38;;;;;;;14.43;4.97;;;7.20;99.90;;;;;;5041860;28;20060;-74
2022/03/27 02:49:04;;;;;;;13.80;5.60;;;7.10;99.90;;;;;;5033339;28;20057;-74
2022/03/27 02:51:29;;;;;;;14.07;5.22;;;7.10;99.90;;;;;;5056372;28;20053;-74
2022/03/27 02:53:55;;;;;;;16.02;6.22;;;7.10;99.90;;;;;;5033214;28;20041;-75
2022/03/27 02:56:21;;;;;;;11.05;4.90;;;7.10;99.90;;;;;;5034165;28;20136;-74
2022/03/27 02:58:47;;;;;;;18.90;6.32;;;7.10;99.90;;;;;;5035375;28;20135;-74
2022/03/27 03:01:12;;;;;;;12.50;5.68;;;7.10;99.90;;;;;;5032628;28;20072;-74
2022/03/27 03:03:38;;;;;;;11.50;4.97;;;7.10;99.90;;;;;;5040098;28;20057;-74
2022/03/27 03:06:07;;;;;;;17.05;5.72;;;7.20;99.90;;;;;;5029192;28;20092;-74
2022/03/27 03:08:36;;;;;;;12.18;5.00;;;7.20;99.90;;;;;;5040434;28;20053;-74
2022/03/27 03:11:03;;;;;;;11.85;5.22;;;7.20;99.90;;;;;;5030494;28;20441;-74
2022/03/27 03:13:32;;;;;;;19.17;5.70;;;7.20;99.90;;;;;;5040674;28;20051;-74
2022/03/27 03:15:58;;;;;;;14.60;5.30;;;7.20;99.90;;;;;;5033359;28;20047;-74
2022/03/27 03:18:25;;;;;;;14.95;4.80;;;7.20;99.90;;;;;;5033744;28;20048;-74
2022/03/27 03:20:51;;;;;;;13.52;5.65;;;7.20;99.90;;;;;;5028381;28;20051;-75
2022/03/27 03:23:16;;;;;;;12.55;5.82;;;7.20;99.90;;;;;;5035530;28;21042;-74
2022/03/27 03:25:42;;;;;;;15.45;5.13;;;7.20;99.90;;;;;;5026854;28;20115;-74
2022/03/27 03:28:09;;;;;;;14.45;5.15;;;7.20;99.90;;;;;;5025101;28;20483;-74
2022/03/27 03:30:35;;;;;;;15.65;6.03;;;7.20;99.90;;;;;;5029148;28;20060;-74
2022/03/27 03:33:05;;;;;;;15.23;6.10;;;7.20;99.90;;;;;;5030804;28;20067;-74
2022/03/27 03:35:30;;;;;;;19.17;5.90;;;7.20;99.90;;;;;;5027613;28;20045;-74
2022/03/27 03:37:56;;;;;;;18.75;6.50;;;7.10;99.90;;;;;;5028234;28;20103;-74
2022/03/27 03:40:23;;;;;;;14.50;6.10;;;7.20;99.90;;;;;;5029836;28;20091;-74
2022/03/27 03:42:52;;;;;;;15.40;5.97;;;7.10;99.90;;;;;;5032645;28;20055;-74
2022/03/27 03:45:18;;;;;;;15.30;5.85;;;7.10;99.90;;;;;;5042956;28;20080;-74
2022/03/27 03:47:44;;;;;;;17.25;6.60;;;7.10;99.90;;;;;;5037051;28;20081;-74
2022/03/27 03:50:10;;;;;;;23.75;7.97;;;7.10;99.90;;;;;;5037256;28;20044;-74
2022/03/27 03:52:36;;;;;;;18.60;6.80;;;7.00;99.90;;;;;;5021776;28;20131;-74
2022/03/27 03:55:02;;;;;;;22.40;7.35;;;7.00;99.90;;;;;;5037115;28;20049;-74
2022/03/27 03:57:28;;;;;;;17.33;7.00;;;7.00;99.90;;;;;;5038286;28;20135;-74
2022/03/27 03:59:55;;;;;;;16.25;7.00;;;7.00;99.90;;;;;;5036217;28;20045;-74
2022/03/27 04:02:21;;;;;;;19.90;7.57;;;7.00;99.90;;;;;;5028266;28;20155;-74
2022/03/27 04:04:46;;;;;;;17.30;7.18;;;6.90;99.90;;;;;;5036329;28;20045;-74
2022/03/27 04:07:13;;;;;;;32.17;7.30;;;6.90;99.90;;;;;;5035247;28;20055;-74
2022/03/27 04:09:38;;;;;;;17.63;7.45;;;6.90;99.90;;;;;;5039357;28;20045;-74
2022/03/27 04:12:05;;;;;;;18.88;6.75;;;6.90;99.90;;;;;;5034071;28;20106;-74
2022/03/27 04:14:34;;;;;;;22.23;9.25;;;6.90;99.90;;;;;;5046965;28;20045;-74
2022/03/27 04:17:00;;;;;;;27.25;8.52;;;6.80;99.90;;;;;;5040683;28;20053;-74
2022/03/27 04:19:25;;;;;;;20.40;7.68;;;6.80;99.90;;;;;;5043776;28;20041;-74
2022/03/27 04:21:51;;;;;;;30.80;7.63;;;6.90;99.90;;;;;;5038206;28;20072;-74
2022/03/27 04:24:17;;;;;;;64.75;8.10;;;6.90;99.90;;;;;;5041411;28;20848;-74
2022/03/27 04:26:42;;;;;;;31.98;7.28;;;6.80;99.90;;;;;;5036029;28;20087;-74
2022/03/27 04:29:10;;;;;;;71.47;8.73;;;6.80;99.90;;;;;;5040580;28;20144;-74
2022/03/27 04:31:36;;;;;;;52.17;8.13;;;6.80;99.90;;;;;;5036722;28;20055;-74
2022/03/27 04:34:02;;;;;;;24.13;7.97;;;6.80;99.90;;;;;;5039560;28;20041;-74
2022/03/27 04:36:27;;;;;;;32.42;8.32;;;6.70;99.90;;;;;;5036700;28;20382;-74
2022/03/27 04:38:55;;;;;;;20.60;7.63;;;6.70;99.90;;;;;;5032047;28;20059;-74
2022/03/27 04:41:21;;;;;;;18.33;6.57;;;6.70;99.90;;;;;;5054698;28;20144;-74
2022/03/27 04:43:48;;;;;;;36.85;7.60;;;6.60;99.90;;;;;;5034484;28;20782;-74
2022/03/27 04:46:17;;;;;;;25.27;7.78;;;6.60;99.90;;;;;;5033222;28;20726;-74
2022/03/27 04:48:44;;;;;;;35.42;8.02;;;6.60;99.90;;;;;;5026423;28;20049;-74
2022/03/27 04:51:10;;;;;;;73.43;8.48;;;6.60;99.90;;;;;;5030180;28;20049;-74
2022/03/27 04:53:35;;;;;;;24.55;7.30;;;6.60;99.90;;;;;;5053525;28;20055;-74
2022/03/27 04:56:01;;;;;;;19.42;7.10;;;6.90;99.90;;;;;;5034460;28;20061;-74
2022/03/27 04:58:27;;;;;;;24.23;7.47;;;6.60;99.90;;;;;;5033970;28;20164;-74
2022/03/27 05:00:52;;;;;;;30.17;6.70;;;6.60;99.90;;;;;;5029341;28;20048;-74
2022/03/27 05:03:18;;;;;;;39.00;7.30;;;6.60;99.90;;;;;;5028384;28;20045;-74
2022/03/27 05:05:43;;;;;;;19.75;6.75;;;6.60;99.90;;;;;;5032228;28;20127;-74
2022/03/27 05:08:10;;;;;;;18.00;6.70;;;6.60;99.90;;;;;;5030047;28;20567;-74
2022/03/27 05:10:36;;;;;;;35.03;7.82;;;6.50;99.90;;;;;;5029040;28;20048;-74
2022/03/27 05:13:02;;;;;;;25.17;7.00;;;6.50;99.90;;;;;;5031805;28;20049;-74
2022/03/27 05:15:28;;;;;;;20.48;7.45;;;6.50;99.90;;;;;;5022215;28;20148;-74
2022/03/27 05:17:58;;;;;;;18.45;6.85;;;6.50;99.90;;;;;;5021798;28;20948;-74
2022/03/27 05:20:24;;;;;;;22.52;7.43;;;6.40;99.90;;;;;;5027842;28;20045;-74
2022/03/27 05:22:50;;;;;;;31.02;6.75;;;6.40;99.90;;;;;;5025201;28;20064;-74
2022/03/27 05:25:17;;;;;;;28.42;6.25;;;6.40;99.90;;;;;;5028219;28;20046;-74
2022/03/27 05:27:58;;;;;;;19.42;7.03;;;6.30;99.90;;;;;;5026540;28;20076;-74
2022/03/27 05:30:26;;;;;;;22.20;6.82;;;6.30;99.90;;;;;;5026328;28;20152;-74
2022/03/27 05:32:56;;;;;;;19.88;6.18;;;6.30;99.90;;;;;;5027977;28;20056;-74
2022/03/27 05:35:22;;;;;;;21.95;6.47;;;6.30;99.90;;;;;;5030608;28;20073;-74
2022/03/27 05:37:49;;;;;;;23.13;6.35;;;6.30;99.90;;;;;;5039138;28;20075;-74
2022/03/27 05:40:20;;;;;;;30.80;7.13;;;6.30;99.90;;;;;;5033354;28;20052;-74
2022/03/27 05:42:47;;;;;;;23.48;7.18;;;6.20;99.90;;;;;;5032460;28;20163;-73
2022/03/27 05:45:13;;;;;;;25.20;6.25;;;6.20;99.90;;;;;;5049821;28;20044;-73
2022/03/27 05:47:42;;;;;;;25.73;7.82;;;6.20;99.90;;;;;;5034692;28;20119;-73
2022/03/27 05:50:15;;;;;;;28.83;7.05;;;6.20;99.90;;;;;;5050918;28;20037;-73
2022/03/27 05:52:42;;;;;;;17.25;6.80;;;6.20;99.90;;;;;;5045944;28;20056;-73
2022/03/27 05:55:08;;;;;;;18.73;6.25;;;6.20;99.90;;;;;;5051464;28;20151;-75
2022/03/27 05:57:34;;;;;;;22.40;6.40;;;6.20;99.90;;;;;;5040189;28;20094;-74
2022/03/27 05:59:59;;;;;;;23.13;6.28;;;6.10;99.90;;;;;;5048378;28;20045;-74
2022/03/27 06:02:25;;;;;;;39.05;7.03;;;6.20;99.90;;;;;;5051356;28;20051;-74
2022/03/27 06:04:51;;;;;;;19.35;6.07;;;6.20;99.90;;;;;;5048687;28;20160;-81
2022/03/27 06:07:17;;;;;;;127.70;9.93;;;6.10;99.90;;;;;;5050365;28;20036;-74
2022/03/27 06:09:42;;;;;;;28.02;6.82;;;6.10;99.90;;;;;;5048239;28;20033;-77
2022/03/27 06:12:10;;;;;;;25.77;6.35;;;6.10;99.90;;;;;;5053369;28;20148;-78
2022/03/27 06:14:36;;;;;;;32.25;6.68;;;6.10;99.90;;;;;;5049266;28;20055;-83
2022/03/27 06:17:02;;;;;;;15.38;5.85;;;6.10;99.90;;;;;;5050051;28;20042;-78
2022/03/27 06:19:30;;;;;;;17.60;6.15;;;6.20;99.90;;;;;;5048599;28;20041;-81
2022/03/27 06:21:56;;;;;;;18.48;6.10;;;6.20;99.90;;;;;;5055500;28;20048;-78
2022/03/27 06:24:22;;;;;;;26.25;6.57;;;6.20;99.90;;;;;;5035748;28;20057;-81
2022/03/27 06:26:47;;;;;;;21.35;7.20;;;6.20;99.90;;;;;;5024135;28;20477;-77
2022/03/27 06:29:14;;;;;;;17.73;5.25;;;6.30;99.90;;;;;;5043870;28;20044;-76
2022/03/27 06:31:40;;;;;;;20.35;6.40;;;6.30;99.90;;;;;;5047509;28;20044;-77
2022/03/27 06:34:06;;;;;;;22.27;6.22;;;6.30;99.90;;;;;;5049838;28;20140;-77
2022/03/27 06:36:34;;;;;;;19.27;6.40;;;6.40;99.90;;;;;;5043889;28;20037;-78
2022/03/27 06:39:01;;;;;;;19.27;6.03;;;6.40;99.90;;;;;;5048146;28;20045;-78
2022/03/27 06:41:26;;;;;;;21.98;5.60;;;6.50;99.90;;;;;;5048173;28;20059;-77
2022/03/27 06:43:52;;;;;;;18.95;5.78;;;6.50;99.90;;;;;;5040094;28;20041;-78
2022/03/27 06:46:18;;;;;;;21.95;5.70;;;6.50;99.90;;;;;;5034804;28;20568;-78
2022/03/27 06:48:44;;;;;;;21.27;6.03;;;6.60;99.90;;;;;;5032823;28;20140;-78
2022/03/27 06:51:10;;;;;;;20.38;5.43;;;6.60;99.90;;;;;;5039293;28;20080;-78
2022/03/27 06:53:37;;;;;;;26.75;6.75;;;6.60;99.90;;;;;;5033845;28;20793;-78
2022/03/27 06:56:03;;;;;;;20.58;5.82;;;6.70;99.90;;;;;;5026169;28;20080;-78
2022/03/27 06:58:28;;;;;;;26.02;5.72;;;6.80;99.90;;;;;;5039938;28;20172;-78
2022/03/27 07:03:38;;;;;;;39.58;7.85;;;6.90;99.90;;;;;;5033041;28;20053;-78
2022/03/27 07:06:04;;;;;;;28.02;5.95;;;7.00;99.90;;;;;;5036424;28;20045;-78
2022/03/27 07:08:29;;;;;;;34.85;7.07;;;7.00;99.90;;;;;;5024815;28;20167;-76
2022/03/27 07:10:55;;;;;;;35.50;5.82;;;7.10;99.90;;;;;;5034822;28;20048;-77
2022/03/27 07:13:21;;;;;;;29.58;6.75;;;7.20;99.90;;;;;;5029444;28;20045;-79
2022/03/27 07:15:49;;;;;;;33.50;6.22;;;7.30;99.90;;;;;;5038594;28;20179;-76
2022/03/27 07:18:17;;;;;;;30.17;6.40;;;7.30;99.90;;;;;;5027398;28;20040;-76
2022/03/27 07:20:44;;;;;;;36.00;7.20;;;7.40;99.90;;;;;;5030519;28;20055;-77
2022/03/27 07:23:13;;;;;;;21.95;5.50;;;7.50;99.90;;;;;;5044997;28;20512;-76
2022/03/27 07:25:42;;;;;;;35.00;6.90;;;7.50;99.90;;;;;;5045760;28;20149;-85
2022/03/27 07:28:09;;;;;;;29.38;6.38;;;7.60;99.90;;;;;;5044030;28;20064;-80
2022/03/27 07:30:35;;;;;;;29.58;5.80;;;7.70;99.90;;;;;;5033662;28;20057;-80
2022/03/27 07:33:02;;;;;;;37.22;7.70;;;7.70;99.90;;;;;;5031346;28;20144;-80
2022/03/27 07:35:30;;;;;;;34.03;6.97;;;7.70;99.90;;;;;;5039240;28;20056;-79
2022/03/27 07:37:56;;;;;;;39.35;7.60;;;7.80;99.90;;;;;;5045056;28;20598;-78
2022/03/27 07:40:22;;;;;;;38.22;9.02;;;7.90;99.90;;;;;;5038133;28;20147;-82
2022/03/27 07:42:50;;;;;;;37.70;8.18;;;7.90;99.90;;;;;;5026712;28;20725;-81
2022/03/27 07:45:21;;;;;;;31.60;7.03;;;7.90;99.90;;;;;;5036093;28;20694;-80
2022/03/27 07:47:49;;;;;;;28.77;6.70;;;8.00;99.90;;;;;;5034774;28;20849;-80
2022/03/27 07:50:16;;;;;;;32.42;6.63;;;8.10;99.90;;;;;;5032110;28;20088;-80
2022/03/27 07:52:42;;;;;;;31.60;6.53;;;8.10;99.90;;;;;;5039195;28;20045;-80
2022/03/27 07:55:09;;;;;;;29.80;5.38;;;8.20;99.90;;;;;;5038469;28;20053;-79
2022/03/27 07:57:35;;;;;;;36.00;6.80;;;8.20;99.90;;;;;;5039255;28;20047;-80
2022/03/27 08:00:02;;;;;;;38.75;8.25;;;8.30;99.90;;;;;;5030092;28;20390;-80
2022/03/27 08:02:27;;;;;;;36.20;7.00;;;8.40;99.90;;;;;;5041699;28;20087;-80
2022/03/27 08:04:53;;;;;;;34.55;7.43;;;8.40;99.90;;;;;;5033269;28;20576;-79
2022/03/27 08:07:18;;;;;;;34.85;7.60;;;8.50;99.90;;;;;;5040513;28;20045;-79
2022/03/27 08:09:44;;;;;;;34.80;6.75;;;8.60;99.90;;;;;;5037403;28;20098;-79
2022/03/27 08:12:11;;;;;;;29.42;5.97;;;8.60;99.90;;;;;;5035665;28;20058;-79
2022/03/27 08:14:37;;;;;;;26.00;5.70;;;8.60;99.90;;;;;;5033909;28;20045;-78
2022/03/27 08:17:03;;;;;;;37.72;7.88;;;8.70;99.90;;;;;;5031114;28;20046;-78
2022/03/27 08:19:29;;;;;;;31.77;5.93;;;8.70;99.90;;;;;;5032542;28;20053;-78
2022/03/27 08:21:55;;;;;;;26.48;6.72;;;8.70;99.90;;;;;;5031789;28;20061;-78
2022/03/27 08:24:21;;;;;;;35.10;7.10;;;8.80;99.90;;;;;;5033637;28;20111;-78
2022/03/27 08:26:56;;;;;;;32.42;7.72;;;8.70;99.90;;;;;;5038198;28;20586;-78
2022/03/27 08:29:23;;;;;;;35.25;8.15;;;8.70;99.90;;;;;;5049672;28;20053;-78
2022/03/27 08:31:49;;;;;;;34.60;6.90;;;8.70;99.90;;;;;;5038309;28;20621;-78
2022/03/27 08:34:17;;;;;;;33.63;6.22;;;8.70;99.90;;;;;;5037979;28;20136;-78
2022/03/27 08:36:42;;;;;;;32.72;7.18;;;8.60;99.90;;;;;;5041010;28;20090;-77
2022/03/27 08:39:08;;;;;;;42.13;8.60;;;8.60;99.90;;;;;;5035844;28;20041;-78
2022/03/27 08:41:34;;;;;;;28.33;7.55;;;8.60;99.90;;;;;;5030129;28;20639;-78
2022/03/27 08:44:01;;;;;;;27.80;7.05;;;8.60;99.90;;;;;;5036713;28;20119;-77
2022/03/27 08:46:30;;;;;;;26.90;7.43;;;8.70;99.90;;;;;;5060265;28;20891;-78
2022/03/27 08:49:01;;;;;;;28.88;7.30;;;8.70;99.90;;;;;;5040047;28;20048;-78
2022/03/27 08:51:32;;;;;;;31.73;8.25;;;8.70;99.90;;;;;;5023807;28;20309;-78
2022/03/27 08:53:57;;;;;;;37.75;8.50;;;8.80;99.90;;;;;;5026562;28;20052;-78
2022/03/27 08:56:24;;;;;;;27.38;7.00;;;8.80;99.90;;;;;;5031147;28;20041;-78
2022/03/27 08:58:51;;;;;;;30.52;7.93;;;8.80;99.90;;;;;;5043071;28;20866;-76
2022/03/27 09:01:17;;;;;;;30.67;7.40;;;8.90;99.90;;;;;;5032026;28;20164;-78
2022/03/27 09:03:43;;;;;;;28.38;6.70;;;9.00;99.90;;;;;;5036730;28;20147;-77
2022/03/27 09:06:09;;;;;;;32.97;7.20;;;9.10;99.90;;;;;;5033801;28;20072;-77
2022/03/27 09:08:34;;;;;;;28.67;6.88;;;9.20;99.90;;;;;;5026836;28;20052;-76
2022/03/27 09:11:01;;;;;;;32.30;7.53;;;9.30;99.90;;;;;;5024827;28;20103;-77
2022/03/27 09:13:27;;;;;;;29.27;7.47;;;9.40;99.90;;;;;;5019535;28;20065;-74
2022/03/27 09:16:04;;;;;;;27.40;6.45;;;9.60;99.90;;;;;;5029605;28;20092;-74
2022/03/27 09:18:52;;;;;;;25.73;6.63;;;9.70;99.90;;;;;;5035095;28;20739;-71
2022/03/27 09:21:19;;;;;;;38.10;7.85;;;9.90;99.90;;;;;;5032650;28;20057;-70
2022/03/27 09:23:53;;;;;;;25.20;6.43;;;9.90;99.90;;;;;;5035063;28;20053;-70
2022/03/27 09:26:20;;;;;;;35.80;7.13;;;10.10;99.90;;;;;;5033300;28;20052;-71
2022/03/27 09:28:52;;;;;;;29.73;6.70;;;10.20;99.90;;;;;;5021754;28;20089;-71
2022/03/27 09:31:18;;;;;;;32.63;6.35;;;10.30;99.90;;;;;;5033098;28;20061;-70
2022/03/27 09:33:48;;;;;;;32.60;6.40;;;10.40;99.90;;;;;;5027367;28;20044;-71
2022/03/27 09:36:15;;;;;;;31.30;7.35;;;10.50;99.90;;;;;;5042985;28;20053;-70
2022/03/27 09:38:55;;;;;;;31.77;7.63;;;10.60;99.90;;;;;;5036245;28;20647;-70
2022/03/27 09:41:39;;;;;;;25.00;6.65;;;10.70;99.90;;;;;;5031575;28;20072;-70
2022/03/27 09:44:11;;;;;;;20.52;5.63;;;10.90;99.90;;;;;;5035103;28;20048;-70
2022/03/27 09:46:57;;;;;;;27.80;5.55;;;11.00;99.90;;;;;;5026439;28;20135;-77
2022/03/27 09:49:34;;;;;;;31.98;6.18;;;11.20;99.90;;;;;;5038279;28;20044;-75
2022/03/27 09:52:10;;;;;;;25.50;6.05;;;11.40;99.90;;;;;;5027048;28;21721;-75
2022/03/27 09:54:45;;;;;;;29.10;6.30;;;11.50;99.90;;;;;;5029503;28;20040;-74
2022/03/27 09:57:29;;;;;;;29.13;6.30;;;11.70;99.90;;;;;;5020848;28;20762;-77
2022/03/27 10:00:15;;;;;;;25.17;7.57;;;11.80;99.90;;;;;;5034805;28;20090;-76
2022/03/27 10:02:42;;;;;;;26.83;6.75;;;12.00;99.90;;;;;;5034147;28;20804;-76
2022/03/27 10:05:09;;;;;;;27.42;6.65;;;12.00;99.90;;;;;;5027989;28;20055;-75
2022/03/27 10:07:41;;;;;;;28.55;6.10;;;12.10;99.90;;;;;;5026898;28;20119;-75
2022/03/27 10:10:12;;;;;;;29.65;5.97;;;12.20;99.90;;;;;;5019289;28;20048;-77
2022/03/27 10:12:39;;;;;;;32.17;6.53;;;12.20;99.90;;;;;;5032955;28;20828;-76
2022/03/27 10:15:09;;;;;;;20.48;5.20;;;12.30;99.90;;;;;;5030748;28;20156;-76
2022/03/27 10:17:37;;;;;;;30.85;6.13;;;12.50;99.90;;;;;;5032403;28;20099;-76
2022/03/27 10:20:10;;;;;;;26.35;5.45;;;12.50;99.90;;;;;;5038571;28;20794;-76
2022/03/27 10:23:16;;;;;;;28.25;6.47;;;12.60;99.90;;;;;;5026514;28;20564;-76
2022/03/27 10:25:55;;;;;;;27.67;7.10;;;12.80;99.90;;;;;;5024058;28;20469;-77
2022/03/27 10:28:22;;;;;;;24.67;5.82;;;12.90;99.90;;;;;;5023420;28;20107;-75
2022/03/27 10:30:52;;;;;;;18.73;6.32;;;13.10;99.90;;;;;;5036504;28;20056;-75
2022/03/27 10:33:28;;;;;;;22.85;5.38;;;13.20;99.90;;;;;;5039973;28;20770;-76
2022/03/27 10:36:09;;;;;;;28.20;6.57;;;13.30;99.90;;;;;;5038979;28;20052;-78
2022/03/27 10:39:00;;;;;;;25.27;6.50;;;13.30;99.90;;;;;;5035058;28;20118;-77
2022/03/27 10:42:11;;;;;;;27.65;6.38;;;13.40;99.90;;;;;;5033151;28;20049;-78
2022/03/27 10:44:53;;;;;;;26.90;6.78;;;13.50;99.90;;;;;;5035617;28;20151;-78
2022/03/27 10:47:24;;;;;;;27.95;6.13;;;13.70;99.90;;;;;;5044283;28;20073;-77
2022/03/27 10:50:02;;;;;;;29.00;6.93;;;13.80;99.90;;;;;;5038755;28;20048;-78
2022/03/27 10:52:55;;;;;;;20.98;6.25;;;13.90;99.90;;;;;;5037290;28;20132;-76
2022/03/27 10:55:20;;;;;;;24.08;6.32;;;14.10;99.90;;;;;;5033874;28;20064;-77
2022/03/27 10:57:51;;;;;;;23.80;7.18;;;14.20;99.90;;;;;;5037690;28;20075;-77
2022/03/27 11:00:43;;;;;;;25.50;6.68;;;14.40;99.90;;;;;;5038019;28;20179;-76
2022/03/27 11:03:08;;;;;;;26.75;5.95;;;14.50;99.80;;;;;;5040571;28;20049;-76
2022/03/27 11:05:37;;;;;;;19.70;5.57;;;14.60;99.90;;;;;;5037960;28;20063;-76
2022/03/27 11:08:37;;;;;;;22.83;6.10;;;14.70;99.90;;;;;;5039953;28;20068;-76
2022/03/27 11:11:03;;;;;;;23.23;6.35;;;14.60;97.10;;;;;;5031601;28;20052;-75
2022/03/27 11:13:29;;;;;;;30.30;6.82;;;14.70;99.80;;;;;;5022648;28;20041;-75
2022/03/27 11:16:15;;;;;;;28.10;5.85;;;14.80;99.90;;;;;;5039785;28;20084;-74
2022/03/27 11:18:43;;;;;;;19.10;4.55;;;14.90;99.50;;;;;;5031881;28;20503;-75
2022/03/27 11:21:14;;;;;;;24.48;5.63;;;15.00;99.00;;;;;;5033306;28;20800;-76
2022/03/27 11:23:41;;;;;;;19.85;4.72;;;15.10;98.70;;;;;;5036142;28;20494;-75
2022/03/27 11:26:27;;;;;;;21.42;4.97;;;15.20;98.50;;;;;;5037383;28;20053;-75
2022/03/27 11:29:23;;;;;;;24.08;5.47;;;15.30;94.90;;;;;;5032982;28;20127;-77
2022/03/27 11:32:09;;;;;;;22.98;4.93;;;15.40;96.10;;;;;;5041562;28;20037;-80
2022/03/27 11:34:38;;;;;;;20.05;4.75;;;15.40;96.00;;;;;;5040105;28;20491;-83
2022/03/27 11:37:25;;;;;;;24.13;5.45;;;15.50;95.30;;;;;;5037331;28;20046;-81
2022/03/27 11:39:52;;;;;;;24.73;4.75;;;15.50;94.90;;;;;;5031109;28;20056;-81
2022/03/27 11:42:21;;;;;;;21.60;4.95;;;15.60;93.70;;;;;;5039464;28;20060;-82
2022/03/27 11:47:36;;;;;;;;;;;15.70;93.80;;;;;;5033830;28;20069;-81
2022/03/27 11:50:03;;;;;;;20.08;5.07;;;15.80;93.10;;;;;;5027117;28;20372;-75
2022/03/27 11:52:28;;;;;;;18.85;4.20;;;15.80;93.60;;;;;;5025923;28;20048;-75
2022/03/27 11:55:12;;;;;;;21.95;4.38;;;15.80;93.90;;;;;;5036175;28;20049;-74
2022/03/27 11:57:53;;;;;;;19.25;4.80;;;15.90;91.60;;;;;;5033406;28;20238;-81
2022/03/27 12:01:01;;;;;;;23.00;4.25;;;16.00;92.00;;;;;;5036946;28;20053;-76
2022/03/27 12:03:26;;;;;;;16.65;4.75;;;16.00;88.20;;;;;;4999624;28;20061;-76
2022/03/27 12:05:53;;;;;;;19.05;4.43;;;16.10;90.90;;;;;;5033926;28;20049;-81
2022/03/27 12:08:19;;;;;;;18.88;4.63;;;16.30;92.50;;;;;;5047106;28;20044;-81
2022/03/27 12:10:46;;;;;;;17.85;3.80;;;16.40;91.10;;;;;;5046126;28;20114;-81
2022/03/27 12:13:14;;;;;;;16.00;3.53;;;16.40;89.40;;;;;;5059180;28;20139;-81
2022/03/27 12:15:54;;;;;;;16.63;3.55;;;16.50;88.70;;;;;;5038842;28;20849;-81
2022/03/27 12:18:28;;;;;;;14.77;3.70;;;16.50;82.80;;;;;;5047358;28;20048;-81
2022/03/27 12:20:54;;;;;;;13.88;3.08;;;16.50;83.30;;;;;;5049275;28;20060;-80
2022/03/27 12:23:22;;;;;;;17.75;3.33;;;16.60;80.40;;;;;;5041831;28;20051;-81
2022/03/27 12:26:02;;;;;;;13.57;3.25;;;16.60;80.90;;;;;;5041794;28;20641;-81
2022/03/27 12:31:21;;;;;;;13.18;3.03;;;16.80;81.00;;;;;;5048249;28;20056;-81
2022/03/27 12:33:48;;;;;;;14.15;2.60;;;17.00;72.50;;;;;;5050427;28;20064;-81
2022/03/27 12:36:14;;;;;;;16.48;3.05;;;17.00;73.00;;;;;;5052706;28;20037;-81
2022/03/27 12:38:41;;;;;;;12.05;3.22;;;17.00;73.40;;;;;;5053126;28;20049;-81
2022/03/27 12:41:08;;;;;;;10.73;2.55;;;17.00;70.80;;;;;;5039567;28;20080;-81
2022/03/27 12:43:34;;;;;;;14.63;2.92;;;17.00;69.20;;;;;;5047569;28;20044;-81
2022/03/27 12:46:20;;;;;;;11.63;2.22;;;17.10;71.00;;;;;;5042712;28;20052;-81
2022/03/27 12:49:08;;;;;;;9.48;2.22;;;17.20;60.90;;;;;;5040817;28;20118;-81
2022/03/27 12:51:34;;;;;;;9.85;2.40;;;17.20;61.70;;;;;;5038568;28;20581;-80
2022/03/27 12:54:08;;;;;;;10.07;2.53;;;17.20;65.70;;;;;;5055219;28;20050;-81
2022/03/27 12:56:53;;;;;;;9.13;1.75;;;17.30;63.50;;;;;;5041015;28;20056;-81
2022/03/27 12:59:23;;;;;;;11.80;2.08;;;17.20;61.10;;;;;;5037082;28;20044;-81
2022/03/27 13:01:49;;;;;;;9.93;2.35;;;17.40;63.40;;;;;;5040835;28;20045;-81
2022/03/27 13:04:14;;;;;;;12.43;2.55;;;17.40;62.60;;;;;;5050400;28;20688;-81